GLD352 SBTC-SBSG
Flight info
| Callsign | GLD352 |
|---|---|
| Flight time | 2h 8m |
| Altitude | 39000 |
| Route | DCT DAKEN UZ42 ANBEX DCT SAFUC SAFU1B |
| Aircraft | E50P/M-SDFGIRY/S |
Departure
| Time | 2026-04-29 12:50 |
|---|---|
| Airport | Una-Comandatuba Airport (SBTC) |
Arrival
| Time | 2026-04-29 14:59 |
|---|---|
| Airport | Rio Grande do Norte/São Gonçalo do Amarante–Governador Aluízio Alves International Airport (SBSG) |
| Time | Latitude | Longitude | Altitude | Speed | Heading |
|---|---|---|---|---|---|
| 2026-04-29 12:28 | -15.35698 | -38.99631 | 21 ft | 0 kts | 352° |
| 2026-04-29 12:38 | -15.35699 | -38.99631 | 21 ft | 0 kts | 352° |
| 2026-04-29 12:44 | -15.35696 | -38.99631 | 21 ft | 1 kts | 4° |
| 2026-04-29 12:44 | -15.35692 | -38.99628 | 21 ft | 1 kts | 62° |
| 2026-04-29 12:44 | -15.35701 | -38.99612 | 24 ft | 5 kts | 168° |
| 2026-04-29 12:45 | -15.35720 | -38.99641 | 21 ft | 7 kts | 265° |
| 2026-04-29 12:45 | -15.35729 | -38.99716 | 22 ft | 15 kts | 264° |
| 2026-04-29 12:45 | -15.35732 | -38.99752 | 20 ft | 0 kts | 263° |
| 2026-04-29 12:46 | -15.35733 | -38.99758 | 20 ft | 3 kts | 263° |
| 2026-04-29 12:47 | -15.35739 | -38.99803 | 20 ft | 9 kts | 263° |
| 2026-04-29 12:47 | -15.35694 | -38.99838 | 22 ft | 11 kts | 353° |
| 2026-04-29 12:47 | -15.35603 | -38.99846 | 23 ft | 16 kts | 360° |
| 2026-04-29 12:47 | -15.35479 | -38.99861 | 21 ft | 20 kts | 341° |
| 2026-04-29 12:48 | -15.35329 | -38.99877 | 21 ft | 23 kts | 350° |
| 2026-04-29 12:48 | -15.35159 | -38.99896 | 22 ft | 26 kts | 354° |
| 2026-04-29 12:48 | -15.34978 | -38.99916 | 21 ft | 26 kts | 356° |
| 2026-04-29 12:48 | -15.34801 | -38.99935 | 23 ft | 26 kts | 356° |
| 2026-04-29 12:49 | -15.34649 | -38.99953 | 21 ft | 16 kts | 341° |
| 2026-04-29 12:49 | -15.34610 | -38.99971 | 20 ft | 1 kts | 58° |
| 2026-04-29 12:49 | -15.34611 | -38.99962 | 20 ft | 3 kts | 128° |
| 2026-04-29 12:49 | -15.34720 | -38.99942 | 21 ft | 42 kts | 176° |
| 2026-04-29 12:50 | -15.35209 | -38.99887 | 21 ft | 96 kts | 179° |
| 2026-04-29 12:50 | -15.35989 | -38.99836 | 123 ft | 123 kts | 172° |
| 2026-04-29 12:50 | -15.36784 | -38.99802 | 788 ft | 110 kts | 173° |
| 2026-04-29 12:50 | -15.37670 | -38.99608 | 928 ft | 153 kts | 159° |
| 2026-04-29 12:51 | -15.38575 | -38.99116 | 1734 ft | 135 kts | 137° |
| 2026-04-29 12:51 | -15.39094 | -38.98305 | 2160 ft | 154 kts | 102° |
| 2026-04-29 12:51 | -15.38861 | -38.97148 | 2575 ft | 164 kts | 57° |
| 2026-04-29 12:51 | -15.38106 | -38.96472 | 3747 ft | 134 kts | 29° |
| 2026-04-29 12:52 | -15.37124 | -38.96136 | 4004 ft | 170 kts | 15° |
| 2026-04-29 12:52 | -15.35966 | -38.95841 | 4738 ft | 157 kts | 21° |
| 2026-04-29 12:52 | -15.35118 | -38.95315 | 5573 ft | 144 kts | 51° |
| 2026-04-29 12:52 | -15.34871 | -38.94174 | 5311 ft | 198 kts | 106° |
| 2026-04-29 12:53 | -15.35982 | -38.93307 | 5680 ft | 215 kts | 157° |
| 2026-04-29 12:53 | -15.37254 | -38.92512 | 6076 ft | 218 kts | 125° |
| 2026-04-29 12:53 | -15.37725 | -38.91028 | 6480 ft | 224 kts | 92° |
| 2026-04-29 12:53 | -15.37751 | -38.89384 | 6817 ft | 233 kts | 89° |
| 2026-04-29 12:54 | -15.37779 | -38.87680 | 7160 ft | 240 kts | 89° |
| 2026-04-29 12:54 | -15.37779 | -38.85930 | 7512 ft | 244 kts | 85° |
| 2026-04-29 12:54 | -15.37221 | -38.84278 | 7919 ft | 249 kts | 55° |
| 2026-04-29 12:54 | -15.35860 | -38.83166 | 8327 ft | 255 kts | 25° |
| 2026-04-29 12:55 | -15.34177 | -38.82536 | 8701 ft | 260 kts | 19° |
| 2026-04-29 12:55 | -15.32449 | -38.81958 | 9063 ft | 263 kts | 18° |
| 2026-04-29 12:55 | -15.30696 | -38.81390 | 9435 ft | 265 kts | 18° |
| 2026-04-29 12:55 | -15.28929 | -38.80824 | 9810 ft | 267 kts | 18° |
| 2026-04-29 12:56 | -15.27152 | -38.80255 | 10164 ft | 268 kts | 18° |
| 2026-04-29 12:56 | -15.25946 | -38.79870 | 10393 ft | 269 kts | 18° |
| 2026-04-29 12:56 | -15.24155 | -38.79305 | 10735 ft | 269 kts | 18° |
| 2026-04-29 12:56 | -15.22360 | -38.78740 | 11082 ft | 270 kts | 18° |
| 2026-04-29 12:57 | -15.20560 | -38.78177 | 11434 ft | 269 kts | 18° |
| 2026-04-29 12:57 | -15.18773 | -38.77624 | 11792 ft | 267 kts | 18° |
| 2026-04-29 12:57 | -15.16997 | -38.77083 | 12146 ft | 266 kts | 18° |
| 2026-04-29 12:57 | -15.15250 | -38.76559 | 12519 ft | 263 kts | 18° |
| 2026-04-29 12:58 | -15.13510 | -38.76043 | 13006 ft | 257 kts | 18° |
| 2026-04-29 12:58 | -15.11802 | -38.75547 | 13510 ft | 253 kts | 18° |
| 2026-04-29 12:58 | -15.10097 | -38.75061 | 14003 ft | 249 kts | 18° |
| 2026-04-29 12:58 | -15.08463 | -38.74602 | 14436 ft | 245 kts | 18° |
| 2026-04-29 12:59 | -15.06826 | -38.74148 | 14884 ft | 242 kts | 18° |
| 2026-04-29 12:59 | -15.05204 | -38.73700 | 15337 ft | 240 kts | 18° |
| 2026-04-29 12:59 | -15.03596 | -38.73259 | 15798 ft | 238 kts | 18° |
| 2026-04-29 12:59 | -15.01981 | -38.72818 | 16263 ft | 236 kts | 18° |
| 2026-04-29 13:00 | -15.00422 | -38.72393 | 16728 ft | 234 kts | 18° |
| 2026-04-29 13:00 | -14.98856 | -38.71970 | 17207 ft | 232 kts | 18° |
| 2026-04-29 13:00 | -14.97301 | -38.71555 | 17693 ft | 230 kts | 18° |
| 2026-04-29 13:00 | -14.95761 | -38.71144 | 18196 ft | 228 kts | 18° |
| 2026-04-29 13:01 | -14.94234 | -38.70740 | 18644 ft | 225 kts | 18° |
| 2026-04-29 13:01 | -14.92723 | -38.70340 | 19076 ft | 223 kts | 18° |
| 2026-04-29 13:01 | -14.91223 | -38.69942 | 19511 ft | 222 kts | 18° |
| 2026-04-29 13:01 | -14.89722 | -38.69540 | 19889 ft | 224 kts | 18° |
| 2026-04-29 13:02 | -14.88213 | -38.69132 | 20272 ft | 225 kts | 18° |
| 2026-04-29 13:02 | -14.86692 | -38.68717 | 20663 ft | 227 kts | 18° |
| 2026-04-29 13:02 | -14.85164 | -38.68295 | 21059 ft | 228 kts | 18° |
| 2026-04-29 13:02 | -14.83630 | -38.67870 | 21461 ft | 229 kts | 18° |
| 2026-04-29 13:03 | -14.82171 | -38.67245 | 21838 ft | 227 kts | 32° |
| 2026-04-29 13:03 | -14.80811 | -38.66409 | 22215 ft | 229 kts | 32° |
| 2026-04-29 13:03 | -14.79394 | -38.65629 | 22584 ft | 233 kts | 28° |
| 2026-04-29 13:03 | -14.77929 | -38.64890 | 22963 ft | 236 kts | 28° |
| 2026-04-29 13:04 | -14.76453 | -38.64130 | 23344 ft | 238 kts | 28° |
| 2026-04-29 13:04 | -14.74963 | -38.63358 | 23717 ft | 241 kts | 28° |
| 2026-04-29 13:04 | -14.73455 | -38.62578 | 24044 ft | 243 kts | 30° |
| 2026-04-29 13:04 | -14.71935 | -38.61790 | 24371 ft | 246 kts | 30° |
| 2026-04-29 13:05 | -14.70399 | -38.60990 | 24703 ft | 248 kts | 30° |
| 2026-04-29 13:05 | -14.68848 | -38.60189 | 25039 ft | 251 kts | 30° |
| 2026-04-29 13:05 | -14.67284 | -38.59379 | 25378 ft | 253 kts | 29° |
| 2026-04-29 13:05 | -14.65708 | -38.58557 | 25723 ft | 254 kts | 30° |
| 2026-04-29 13:06 | -14.64133 | -38.57709 | 26071 ft | 256 kts | 29° |
| 2026-04-29 13:06 | -14.62519 | -38.56905 | 26427 ft | 258 kts | 28° |
| 2026-04-29 13:06 | -14.60900 | -38.56088 | 26785 ft | 260 kts | 29° |
| 2026-04-29 13:06 | -14.59280 | -38.55248 | 27146 ft | 261 kts | 29° |
| 2026-04-29 13:07 | -14.57653 | -38.54407 | 27505 ft | 262 kts | 29° |
| 2026-04-29 13:07 | -14.56016 | -38.53561 | 27879 ft | 264 kts | 29° |
| 2026-04-29 13:07 | -14.54371 | -38.52715 | 28254 ft | 265 kts | 29° |
| 2026-04-29 13:07 | -14.52721 | -38.51862 | 28635 ft | 265 kts | 29° |
| 2026-04-29 13:08 | -14.51067 | -38.51010 | 29023 ft | 266 kts | 29° |
| 2026-04-29 13:08 | -14.49409 | -38.50154 | 29413 ft | 267 kts | 29° |
| 2026-04-29 13:08 | -14.47745 | -38.49296 | 29809 ft | 267 kts | 28° |
| 2026-04-29 13:08 | -14.46079 | -38.48437 | 30199 ft | 268 kts | 29° |
| 2026-04-29 13:09 | -14.44412 | -38.47577 | 30534 ft | 268 kts | 28° |
| 2026-04-29 13:09 | -14.42746 | -38.46719 | 30875 ft | 268 kts | 28° |
| 2026-04-29 13:09 | -14.41079 | -38.45859 | 31219 ft | 268 kts | 28° |
| 2026-04-29 13:09 | -14.39414 | -38.45003 | 31570 ft | 267 kts | 29° |
| 2026-04-29 13:10 | -14.37756 | -38.44148 | 31920 ft | 266 kts | 28° |
| 2026-04-29 13:10 | -14.36102 | -38.43297 | 32277 ft | 265 kts | 28° |
| 2026-04-29 13:10 | -14.34457 | -38.42449 | 32642 ft | 263 kts | 29° |
| 2026-04-29 13:10 | -14.32824 | -38.41608 | 33007 ft | 261 kts | 28° |
| 2026-04-29 13:11 | -14.31206 | -38.40776 | 33380 ft | 259 kts | 28° |
| 2026-04-29 13:11 | -14.29603 | -38.39950 | 33751 ft | 256 kts | 28° |
| 2026-04-29 13:11 | -14.28019 | -38.39136 | 34119 ft | 253 kts | 28° |
| 2026-04-29 13:11 | -14.26454 | -38.38330 | 34446 ft | 249 kts | 28° |
| 2026-04-29 13:12 | -14.24913 | -38.37537 | 34772 ft | 246 kts | 28° |
| 2026-04-29 13:12 | -14.23398 | -38.36758 | 35104 ft | 241 kts | 28° |
| 2026-04-29 13:12 | -14.21914 | -38.35995 | 35433 ft | 236 kts | 28° |
| 2026-04-29 13:12 | -14.20464 | -38.35249 | 35775 ft | 230 kts | 27° |
| 2026-04-29 13:13 | -14.19059 | -38.34524 | 36110 ft | 222 kts | 27° |
| 2026-04-29 13:13 | -14.17683 | -38.33821 | 36447 ft | 213 kts | 27° |
| 2026-04-29 13:13 | -14.16387 | -38.33155 | 36764 ft | 204 kts | 27° |
| 2026-04-29 13:13 | -14.15103 | -38.32494 | 36816 ft | 211 kts | 27° |
| 2026-04-29 13:14 | -14.13768 | -38.31807 | 36868 ft | 216 kts | 27° |
| 2026-04-29 13:14 | -14.12452 | -38.31131 | 37162 ft | 207 kts | 27° |
| 2026-04-29 13:14 | -14.11160 | -38.30467 | 37271 ft | 210 kts | 27° |
| 2026-04-29 13:14 | -14.09824 | -38.29781 | 37288 ft | 217 kts | 27° |
| 2026-04-29 13:15 | -14.08488 | -38.29094 | 37522 ft | 212 kts | 27° |
| 2026-04-29 13:15 | -14.07178 | -38.28422 | 37684 ft | 211 kts | 27° |
| 2026-04-29 13:15 | -14.05842 | -38.27735 | 37710 ft | 217 kts | 27° |
| 2026-04-29 13:15 | -14.04492 | -38.27043 | 37901 ft | 214 kts | 27° |
| 2026-04-29 13:16 | -14.03167 | -38.26362 | 38079 ft | 213 kts | 27° |
| 2026-04-29 13:16 | -14.01822 | -38.25672 | 38107 ft | 218 kts | 27° |
| 2026-04-29 13:16 | -14.00461 | -38.24972 | 38268 ft | 217 kts | 27° |
| 2026-04-29 13:16 | -13.99113 | -38.24280 | 38421 ft | 216 kts | 27° |
| 2026-04-29 13:17 | -13.97753 | -38.23583 | 38477 ft | 221 kts | 27° |
| 2026-04-29 13:17 | -13.96378 | -38.22877 | 38615 ft | 220 kts | 27° |
| 2026-04-29 13:17 | -13.95000 | -38.22171 | 38798 ft | 217 kts | 27° |
| 2026-04-29 13:17 | -13.93617 | -38.21462 | 38845 ft | 221 kts | 27° |
| 2026-04-29 13:18 | -13.92238 | -38.20755 | 38934 ft | 222 kts | 27° |
| 2026-04-29 13:18 | -13.90862 | -38.20049 | 39106 ft | 219 kts | 27° |
| 2026-04-29 13:18 | -13.89483 | -38.19342 | 39130 ft | 224 kts | 27° |
| 2026-04-29 13:18 | -13.88068 | -38.18616 | 39132 ft | 231 kts | 27° |
| 2026-04-29 13:19 | -13.86609 | -38.17868 | 39135 ft | 238 kts | 27° |
| 2026-04-29 13:19 | -13.85105 | -38.17097 | 39130 ft | 245 kts | 27° |
| 2026-04-29 13:19 | -13.83551 | -38.16301 | 39130 ft | 253 kts | 26° |
| 2026-04-29 13:19 | -13.81952 | -38.15483 | 39130 ft | 260 kts | 26° |
| 2026-04-29 13:20 | -13.80308 | -38.14641 | 39129 ft | 268 kts | 26° |
| 2026-04-29 13:20 | -13.78617 | -38.13775 | 39129 ft | 275 kts | 26° |
| 2026-04-29 13:20 | -13.76878 | -38.12886 | 39135 ft | 283 kts | 26° |
| 2026-04-29 13:20 | -13.75096 | -38.11973 | 39129 ft | 290 kts | 26° |
| 2026-04-29 13:21 | -13.73269 | -38.11039 | 39129 ft | 296 kts | 26° |
| 2026-04-29 13:21 | -13.69468 | -38.09094 | 39126 ft | 309 kts | 26° |
| 2026-04-29 13:22 | -13.65543 | -38.07086 | 39124 ft | 321 kts | 26° |
| 2026-04-29 13:22 | -13.61482 | -38.05011 | 39124 ft | 331 kts | 26° |
| 2026-04-29 13:23 | -13.57296 | -38.02871 | 39119 ft | 340 kts | 26° |
| 2026-04-29 13:23 | -13.52981 | -38.00666 | 39121 ft | 348 kts | 26° |
| 2026-04-29 13:24 | -13.48610 | -37.98434 | 39117 ft | 354 kts | 26° |
| 2026-04-29 13:24 | -13.44163 | -37.96164 | 39118 ft | 359 kts | 26° |
| 2026-04-29 13:25 | -13.39655 | -37.93863 | 39115 ft | 364 kts | 26° |
| 2026-04-29 13:25 | -13.33550 | -37.90749 | 39118 ft | 368 kts | 26° |
| 2026-04-29 13:26 | -13.28938 | -37.88398 | 39112 ft | 371 kts | 26° |
| 2026-04-29 13:26 | -13.24301 | -37.86035 | 39107 ft | 373 kts | 26° |
| 2026-04-29 13:27 | -13.19637 | -37.83658 | 39110 ft | 375 kts | 26° |
| 2026-04-29 13:27 | -13.14924 | -37.81260 | 39109 ft | 376 kts | 26° |
| 2026-04-29 13:28 | -13.10226 | -37.78867 | 39109 ft | 377 kts | 26° |
| 2026-04-29 13:28 | -13.05516 | -37.76472 | 39111 ft | 378 kts | 26° |
| 2026-04-29 13:29 | -13.00798 | -37.74073 | 39110 ft | 379 kts | 26° |
| 2026-04-29 13:29 | -12.96074 | -37.71672 | 39110 ft | 379 kts | 26° |
| 2026-04-29 13:30 | -12.91343 | -37.69269 | 39105 ft | 380 kts | 26° |
| 2026-04-29 13:30 | -12.86641 | -37.66880 | 39107 ft | 380 kts | 26° |
| 2026-04-29 13:31 | -12.81903 | -37.64475 | 39103 ft | 380 kts | 26° |
| 2026-04-29 13:31 | -12.77163 | -37.62070 | 39104 ft | 380 kts | 26° |
| 2026-04-29 13:32 | -12.72425 | -37.59667 | 39102 ft | 380 kts | 26° |
| 2026-04-29 13:32 | -12.67656 | -37.57248 | 39100 ft | 380 kts | 26° |
| 2026-04-29 13:33 | -12.62917 | -37.54847 | 39105 ft | 380 kts | 26° |
| 2026-04-29 13:33 | -12.58179 | -37.52446 | 39104 ft | 380 kts | 26° |
| 2026-04-29 13:34 | -12.53441 | -37.50048 | 39098 ft | 380 kts | 26° |
| 2026-04-29 13:34 | -12.48704 | -37.47649 | 39098 ft | 380 kts | 26° |
| 2026-04-29 13:35 | -12.43998 | -37.45268 | 39096 ft | 380 kts | 26° |
| 2026-04-29 13:35 | -12.39231 | -37.42857 | 39097 ft | 380 kts | 26° |
| 2026-04-29 13:36 | -12.34494 | -37.40462 | 39098 ft | 380 kts | 26° |
| 2026-04-29 13:36 | -12.29791 | -37.38085 | 39096 ft | 380 kts | 26° |
| 2026-04-29 13:37 | -12.25023 | -37.35677 | 39095 ft | 380 kts | 26° |
| 2026-04-29 13:37 | -12.20287 | -37.33286 | 39091 ft | 380 kts | 26° |
| 2026-04-29 13:38 | -12.15581 | -37.30911 | 39092 ft | 380 kts | 26° |
| 2026-04-29 13:38 | -12.10845 | -37.28521 | 39090 ft | 380 kts | 26° |
| 2026-04-29 13:39 | -12.06076 | -37.26115 | 39091 ft | 380 kts | 26° |
| 2026-04-29 13:39 | -12.01337 | -37.23727 | 39089 ft | 380 kts | 26° |
| 2026-04-29 13:40 | -11.96599 | -37.21338 | 39086 ft | 380 kts | 26° |
| 2026-04-29 13:40 | -11.91860 | -37.18951 | 39086 ft | 380 kts | 26° |
| 2026-04-29 13:41 | -11.87152 | -37.16580 | 39082 ft | 380 kts | 26° |
| 2026-04-29 13:41 | -11.82379 | -37.14178 | 39082 ft | 380 kts | 26° |
| 2026-04-29 13:42 | -11.77673 | -37.11810 | 39078 ft | 380 kts | 26° |
| 2026-04-29 13:42 | -11.72931 | -37.09425 | 39077 ft | 380 kts | 26° |
| 2026-04-29 13:43 | -11.68189 | -37.07041 | 39080 ft | 380 kts | 26° |
| 2026-04-29 13:43 | -11.63450 | -37.04659 | 39079 ft | 380 kts | 26° |
| 2026-04-29 13:44 | -11.58710 | -37.02278 | 39078 ft | 380 kts | 26° |
| 2026-04-29 13:44 | -11.53970 | -36.99898 | 39075 ft | 380 kts | 26° |
| 2026-04-29 13:45 | -11.49231 | -36.97518 | 39074 ft | 380 kts | 26° |
| 2026-04-29 13:45 | -11.44487 | -36.95138 | 39074 ft | 380 kts | 26° |
| 2026-04-29 13:46 | -11.39741 | -36.92758 | 39069 ft | 380 kts | 26° |
| 2026-04-29 13:46 | -11.34996 | -36.90377 | 39068 ft | 381 kts | 26° |
| 2026-04-29 13:47 | -11.30242 | -36.87996 | 39067 ft | 381 kts | 25° |
| 2026-04-29 13:47 | -11.25490 | -36.85613 | 39066 ft | 381 kts | 25° |
| 2026-04-29 13:48 | -11.20735 | -36.83233 | 39065 ft | 381 kts | 26° |
| 2026-04-29 13:48 | -11.15978 | -36.80850 | 39066 ft | 381 kts | 26° |
| 2026-04-29 13:49 | -11.11221 | -36.78470 | 39063 ft | 381 kts | 26° |
| 2026-04-29 13:49 | -11.06468 | -36.76088 | 39064 ft | 381 kts | 26° |
| 2026-04-29 13:50 | -11.01714 | -36.73708 | 39065 ft | 381 kts | 26° |
| 2026-04-29 13:50 | -10.96959 | -36.71331 | 39065 ft | 381 kts | 26° |
| 2026-04-29 13:51 | -10.92206 | -36.68955 | 39066 ft | 381 kts | 26° |
| 2026-04-29 13:51 | -10.87450 | -36.66580 | 39068 ft | 381 kts | 26° |
| 2026-04-29 13:52 | -10.82698 | -36.64206 | 39068 ft | 381 kts | 26° |
| 2026-04-29 13:52 | -10.77942 | -36.61832 | 39069 ft | 381 kts | 26° |
| 2026-04-29 13:53 | -10.73186 | -36.59458 | 39070 ft | 381 kts | 26° |
| 2026-04-29 13:53 | -10.68430 | -36.57086 | 39070 ft | 381 kts | 26° |
| 2026-04-29 13:54 | -10.63675 | -36.54714 | 39064 ft | 381 kts | 26° |
| 2026-04-29 13:54 | -10.58918 | -36.52343 | 39065 ft | 381 kts | 26° |
| 2026-04-29 13:55 | -10.54169 | -36.49975 | 39065 ft | 380 kts | 26° |
| 2026-04-29 13:55 | -10.49450 | -36.47624 | 39066 ft | 380 kts | 26° |
| 2026-04-29 13:56 | -10.44700 | -36.45259 | 39066 ft | 380 kts | 26° |
| 2026-04-29 13:56 | -10.39951 | -36.42894 | 39064 ft | 380 kts | 26° |
| 2026-04-29 13:57 | -10.35207 | -36.40533 | 39064 ft | 380 kts | 26° |
| 2026-04-29 13:57 | -10.31264 | -36.38572 | 39067 ft | 380 kts | 26° |
| 2026-04-29 13:58 | -10.25726 | -36.35818 | 39068 ft | 379 kts | 27° |
| 2026-04-29 13:58 | -10.20991 | -36.33463 | 39068 ft | 379 kts | 26° |
| 2026-04-29 13:59 | -10.16258 | -36.31111 | 39069 ft | 379 kts | 26° |
| 2026-04-29 13:59 | -10.11526 | -36.28762 | 39069 ft | 378 kts | 26° |
| 2026-04-29 14:00 | -10.06794 | -36.26408 | 39065 ft | 379 kts | 26° |
| 2026-04-29 14:00 | -10.02064 | -36.24061 | 39066 ft | 378 kts | 26° |
| 2026-04-29 14:01 | -9.97338 | -36.21715 | 39064 ft | 378 kts | 26° |
| 2026-04-29 14:01 | -9.92609 | -36.19368 | 39065 ft | 378 kts | 26° |
| 2026-04-29 14:02 | -9.87889 | -36.17027 | 39064 ft | 378 kts | 26° |
| 2026-04-29 14:02 | -9.83160 | -36.14682 | 39065 ft | 378 kts | 26° |
| 2026-04-29 14:03 | -9.78437 | -36.12344 | 39062 ft | 378 kts | 25° |
| 2026-04-29 14:03 | -9.73709 | -36.10013 | 39060 ft | 378 kts | 25° |
| 2026-04-29 14:04 | -9.68984 | -36.07665 | 39057 ft | 378 kts | 26° |
| 2026-04-29 14:04 | -9.64257 | -36.05317 | 39052 ft | 378 kts | 26° |
| 2026-04-29 14:05 | -9.59525 | -36.02974 | 39049 ft | 378 kts | 26° |
| 2026-04-29 14:05 | -9.54793 | -36.00631 | 39048 ft | 379 kts | 26° |
| 2026-04-29 14:06 | -9.50058 | -35.98290 | 39045 ft | 379 kts | 26° |
| 2026-04-29 14:06 | -9.45317 | -35.95946 | 39045 ft | 380 kts | 26° |
| 2026-04-29 14:07 | -9.40596 | -35.93612 | 39044 ft | 380 kts | 26° |
| 2026-04-29 14:07 | -9.35841 | -35.91261 | 39046 ft | 380 kts | 26° |
| 2026-04-29 14:08 | -9.31856 | -35.89291 | 39047 ft | 381 kts | 26° |
| 2026-04-29 14:08 | -9.27092 | -35.86938 | 39049 ft | 381 kts | 26° |
| 2026-04-29 14:09 | -9.22318 | -35.84579 | 39047 ft | 382 kts | 26° |
| 2026-04-29 14:09 | -9.17540 | -35.82220 | 39054 ft | 381 kts | 26° |
| 2026-04-29 14:10 | -9.12804 | -35.79883 | 39054 ft | 381 kts | 26° |
| 2026-04-29 14:10 | -9.08040 | -35.77531 | 39058 ft | 381 kts | 27° |
| 2026-04-29 14:11 | -9.03275 | -35.75181 | 39055 ft | 381 kts | 26° |
| 2026-04-29 14:11 | -8.98288 | -35.73428 | 39052 ft | 380 kts | 17° |
| 2026-04-29 14:12 | -8.93196 | -35.71839 | 39051 ft | 381 kts | 17° |
| 2026-04-29 14:12 | -8.88150 | -35.70328 | 39054 ft | 381 kts | 17° |
| 2026-04-29 14:13 | -8.83077 | -35.68777 | 39055 ft | 381 kts | 17° |
| 2026-04-29 14:13 | -8.78001 | -35.67242 | 39053 ft | 381 kts | 17° |
| 2026-04-29 14:14 | -8.75436 | -35.66463 | 38761 ft | 389 kts | 17° |
| 2026-04-29 14:14 | -8.72840 | -35.65674 | 38378 ft | 389 kts | 17° |
| 2026-04-29 14:14 | -8.70247 | -35.64887 | 37980 ft | 389 kts | 17° |
| 2026-04-29 14:14 | -8.67659 | -35.64104 | 37591 ft | 388 kts | 17° |
| 2026-04-29 14:15 | -8.65073 | -35.63319 | 37208 ft | 388 kts | 17° |
| 2026-04-29 14:15 | -8.62489 | -35.62535 | 36838 ft | 387 kts | 18° |
| 2026-04-29 14:15 | -8.59910 | -35.61753 | 36469 ft | 387 kts | 18° |
| 2026-04-29 14:15 | -8.57333 | -35.60973 | 36107 ft | 386 kts | 18° |
| 2026-04-29 14:16 | -8.54762 | -35.60193 | 35753 ft | 386 kts | 18° |
| 2026-04-29 14:16 | -8.52193 | -35.59414 | 35402 ft | 385 kts | 18° |
| 2026-04-29 14:16 | -8.49625 | -35.58636 | 35054 ft | 385 kts | 18° |
| 2026-04-29 14:16 | -8.47065 | -35.57861 | 34712 ft | 384 kts | 18° |
| 2026-04-29 14:17 | -8.44507 | -35.57086 | 34375 ft | 383 kts | 18° |
| 2026-04-29 14:17 | -8.41952 | -35.56312 | 34039 ft | 383 kts | 18° |
| 2026-04-29 14:17 | -8.39407 | -35.55541 | 33662 ft | 382 kts | 18° |
| 2026-04-29 14:17 | -8.36867 | -35.54772 | 33275 ft | 381 kts | 18° |
| 2026-04-29 14:18 | -8.34331 | -35.54004 | 32902 ft | 380 kts | 19° |
| 2026-04-29 14:18 | -8.31803 | -35.53240 | 32534 ft | 379 kts | 19° |
| 2026-04-29 14:18 | -8.29284 | -35.52477 | 32171 ft | 377 kts | 19° |
| 2026-04-29 14:18 | -8.26776 | -35.51717 | 31818 ft | 376 kts | 19° |
| 2026-04-29 14:19 | -8.24276 | -35.50961 | 31457 ft | 374 kts | 19° |
| 2026-04-29 14:19 | -8.21784 | -35.50207 | 31107 ft | 373 kts | 19° |
| 2026-04-29 14:19 | -8.19303 | -35.49456 | 30764 ft | 372 kts | 19° |
| 2026-04-29 14:19 | -8.16832 | -35.48709 | 30415 ft | 370 kts | 19° |
| 2026-04-29 14:20 | -8.14369 | -35.47964 | 30078 ft | 368 kts | 20° |
| 2026-04-29 14:20 | -8.11919 | -35.47223 | 29687 ft | 367 kts | 19° |
| 2026-04-29 14:20 | -8.09481 | -35.46485 | 29293 ft | 365 kts | 20° |
| 2026-04-29 14:20 | -8.07058 | -35.45753 | 28906 ft | 363 kts | 20° |
| 2026-04-29 14:21 | -8.04643 | -35.45024 | 28521 ft | 361 kts | 20° |
| 2026-04-29 14:21 | -8.02246 | -35.44299 | 28140 ft | 359 kts | 20° |
| 2026-04-29 14:21 | -7.99863 | -35.43583 | 27766 ft | 356 kts | 19° |
| 2026-04-29 14:21 | -7.97494 | -35.42875 | 27394 ft | 354 kts | 19° |
| 2026-04-29 14:22 | -7.95141 | -35.42166 | 27033 ft | 352 kts | 19° |
| 2026-04-29 14:22 | -7.92804 | -35.41457 | 26672 ft | 349 kts | 19° |
| 2026-04-29 14:22 | -7.90483 | -35.40755 | 26311 ft | 347 kts | 20° |
| 2026-04-29 14:22 | -7.88176 | -35.40059 | 25959 ft | 345 kts | 20° |
| 2026-04-29 14:23 | -7.85884 | -35.39368 | 25612 ft | 343 kts | 20° |
| 2026-04-29 14:23 | -7.83610 | -35.38678 | 25265 ft | 340 kts | 21° |
| 2026-04-29 14:23 | -7.81351 | -35.37987 | 24933 ft | 338 kts | 22° |
| 2026-04-29 14:23 | -7.79109 | -35.37303 | 24595 ft | 336 kts | 22° |
| 2026-04-29 14:24 | -7.76876 | -35.36631 | 24264 ft | 334 kts | 20° |
| 2026-04-29 14:24 | -7.74661 | -35.35965 | 23940 ft | 332 kts | 22° |
| 2026-04-29 14:24 | -7.72454 | -35.35298 | 23617 ft | 330 kts | 22° |
| 2026-04-29 14:24 | -7.70262 | -35.34634 | 23240 ft | 328 kts | 22° |
| 2026-04-29 14:25 | -7.68083 | -35.33978 | 22863 ft | 326 kts | 22° |
| 2026-04-29 14:25 | -7.65916 | -35.33325 | 22480 ft | 324 kts | 22° |
| 2026-04-29 14:25 | -7.63764 | -35.32674 | 22106 ft | 322 kts | 22° |
| 2026-04-29 14:25 | -7.61620 | -35.32028 | 21738 ft | 321 kts | 22° |
| 2026-04-29 14:26 | -7.59485 | -35.31383 | 21371 ft | 320 kts | 22° |
| 2026-04-29 14:26 | -7.57359 | -35.30743 | 21012 ft | 318 kts | 21° |
| 2026-04-29 14:26 | -7.55243 | -35.30105 | 20651 ft | 317 kts | 22° |
| 2026-04-29 14:26 | -7.53133 | -35.29468 | 20299 ft | 316 kts | 21° |
| 2026-04-29 14:27 | -7.51026 | -35.28833 | 19954 ft | 315 kts | 21° |
| 2026-04-29 14:27 | -7.48931 | -35.28203 | 19608 ft | 314 kts | 21° |
| 2026-04-29 14:27 | -7.46841 | -35.27573 | 19272 ft | 313 kts | 21° |
| 2026-04-29 14:28 | -7.42711 | -35.26327 | 18556 ft | 312 kts | 20° |
| 2026-04-29 14:28 | -7.40569 | -35.25680 | 17838 ft | 322 kts | 20° |
| 2026-04-29 14:28 | -7.38424 | -35.25033 | 17100 ft | 329 kts | 20° |
| 2026-04-29 14:28 | -7.36211 | -35.24367 | 16371 ft | 335 kts | 19° |
| 2026-04-29 14:29 | -7.33965 | -35.23691 | 15664 ft | 339 kts | 19° |
| 2026-04-29 14:29 | -7.31698 | -35.23009 | 14964 ft | 342 kts | 19° |
| 2026-04-29 14:29 | -7.29414 | -35.22321 | 14286 ft | 343 kts | 19° |
| 2026-04-29 14:29 | -7.27151 | -35.21639 | 13597 ft | 332 kts | 19° |
| 2026-04-29 14:30 | -7.24987 | -35.20992 | 12857 ft | 318 kts | 19° |
| 2026-04-29 14:30 | -7.22898 | -35.20362 | 12124 ft | 309 kts | 20° |
| 2026-04-29 14:30 | -7.20867 | -35.19747 | 11406 ft | 301 kts | 19° |
| 2026-04-29 14:30 | -7.18883 | -35.19149 | 10704 ft | 295 kts | 19° |
| 2026-04-29 14:31 | -7.16940 | -35.18567 | 10110 ft | 287 kts | 18° |
| 2026-04-29 14:31 | -7.15066 | -35.18002 | 9629 ft | 276 kts | 18° |
| 2026-04-29 14:31 | -7.13251 | -35.17457 | 9123 ft | 268 kts | 16° |
| 2026-04-29 14:31 | -7.11478 | -35.16937 | 8619 ft | 263 kts | 17° |
| 2026-04-29 14:32 | -7.09739 | -35.16420 | 8124 ft | 259 kts | 17° |
| 2026-04-29 14:32 | -7.08027 | -35.15904 | 7639 ft | 255 kts | 17° |
| 2026-04-29 14:32 | -7.06309 | -35.15385 | 7151 ft | 267 kts | 18° |
| 2026-04-29 14:32 | -7.04476 | -35.14834 | 7059 ft | 279 kts | 18° |
| 2026-04-29 14:33 | -7.02600 | -35.14269 | 7053 ft | 284 kts | 18° |
| 2026-04-29 14:33 | -7.00699 | -35.13691 | 7052 ft | 287 kts | 18° |
| 2026-04-29 14:33 | -6.98725 | -35.13410 | 7088 ft | 292 kts | 356° |
| 2026-04-29 14:33 | -6.96773 | -35.14001 | 7048 ft | 297 kts | 333° |
| 2026-04-29 14:34 | -6.94910 | -35.14966 | 6820 ft | 306 kts | 331° |
| 2026-04-29 14:34 | -6.92956 | -35.15888 | 6565 ft | 314 kts | 336° |
| 2026-04-29 14:34 | -6.90899 | -35.16665 | 6321 ft | 317 kts | 339° |
| 2026-04-29 14:34 | -6.88831 | -35.17452 | 6083 ft | 319 kts | 337° |
| 2026-04-29 14:35 | -6.86770 | -35.18308 | 5835 ft | 321 kts | 336° |
| 2026-04-29 14:35 | -6.84704 | -35.19161 | 5587 ft | 319 kts | 337° |
| 2026-04-29 14:35 | -6.82668 | -35.19973 | 5344 ft | 307 kts | 338° |
| 2026-04-29 14:35 | -6.80763 | -35.20732 | 5102 ft | 283 kts | 338° |
| 2026-04-29 14:36 | -6.78992 | -35.21448 | 4859 ft | 267 kts | 337° |
| 2026-04-29 14:36 | -6.77312 | -35.22127 | 4610 ft | 255 kts | 337° |
| 2026-04-29 14:36 | -6.75684 | -35.22783 | 4354 ft | 254 kts | 336° |
| 2026-04-29 14:36 | -6.73982 | -35.23475 | 4106 ft | 272 kts | 337° |
| 2026-04-29 14:37 | -6.72174 | -35.24207 | 3862 ft | 288 kts | 338° |
| 2026-04-29 14:37 | -6.70285 | -35.24970 | 3622 ft | 297 kts | 338° |
| 2026-04-29 14:37 | -6.68351 | -35.25755 | 3492 ft | 299 kts | 338° |
| 2026-04-29 14:37 | -6.66432 | -35.26529 | 3487 ft | 294 kts | 337° |
| 2026-04-29 14:38 | -6.64548 | -35.27289 | 3493 ft | 290 kts | 337° |
| 2026-04-29 14:38 | -6.62682 | -35.28043 | 3493 ft | 288 kts | 338° |
| 2026-04-29 14:38 | -6.60824 | -35.28793 | 3489 ft | 287 kts | 338° |
| 2026-04-29 14:38 | -6.58976 | -35.29539 | 3487 ft | 285 kts | 338° |
| 2026-04-29 14:39 | -6.57137 | -35.30279 | 3477 ft | 284 kts | 337° |
| 2026-04-29 14:39 | -6.55306 | -35.31022 | 3471 ft | 283 kts | 338° |
| 2026-04-29 14:39 | -6.53483 | -35.31759 | 3477 ft | 282 kts | 338° |
| 2026-04-29 14:39 | -6.51664 | -35.32492 | 3480 ft | 282 kts | 338° |
| 2026-04-29 14:40 | -6.49842 | -35.33226 | 3479 ft | 282 kts | 337° |
| 2026-04-29 14:40 | -6.48024 | -35.33961 | 3477 ft | 282 kts | 337° |
| 2026-04-29 14:40 | -6.46204 | -35.34697 | 3474 ft | 281 kts | 338° |
| 2026-04-29 14:40 | -6.44388 | -35.35430 | 3473 ft | 281 kts | 338° |
| 2026-04-29 14:41 | -6.42572 | -35.36161 | 3476 ft | 281 kts | 337° |
| 2026-04-29 14:41 | -6.40758 | -35.36895 | 3472 ft | 281 kts | 338° |
| 2026-04-29 14:41 | -6.38947 | -35.37627 | 3477 ft | 281 kts | 338° |
| 2026-04-29 14:41 | -6.37134 | -35.38357 | 3478 ft | 281 kts | 338° |
| 2026-04-29 14:42 | -6.35314 | -35.39090 | 3473 ft | 282 kts | 338° |
| 2026-04-29 14:42 | -6.33496 | -35.39825 | 3472 ft | 281 kts | 337° |
| 2026-04-29 14:42 | -6.31682 | -35.40558 | 3467 ft | 280 kts | 337° |
| 2026-04-29 14:42 | -6.29869 | -35.41289 | 3478 ft | 281 kts | 337° |
| 2026-04-29 14:43 | -6.28045 | -35.42025 | 3475 ft | 284 kts | 338° |
| 2026-04-29 14:43 | -6.26201 | -35.42768 | 3470 ft | 286 kts | 338° |
| 2026-04-29 14:43 | -6.24350 | -35.43516 | 3469 ft | 287 kts | 338° |
| 2026-04-29 14:43 | -6.22504 | -35.44259 | 3476 ft | 285 kts | 338° |
| 2026-04-29 14:44 | -6.20671 | -35.44999 | 3477 ft | 283 kts | 337° |
| 2026-04-29 14:44 | -6.18847 | -35.45733 | 3476 ft | 282 kts | 338° |
| 2026-04-29 14:44 | -6.17028 | -35.46469 | 3475 ft | 282 kts | 338° |
| 2026-04-29 14:44 | -6.15201 | -35.47204 | 3470 ft | 283 kts | 338° |
| 2026-04-29 14:45 | -6.13377 | -35.47940 | 3476 ft | 283 kts | 338° |
| 2026-04-29 14:45 | -6.11550 | -35.48680 | 3466 ft | 283 kts | 337° |
| 2026-04-29 14:45 | -6.09722 | -35.49417 | 3473 ft | 283 kts | 337° |
| 2026-04-29 14:45 | -6.07895 | -35.50147 | 3473 ft | 282 kts | 337° |
| 2026-04-29 14:46 | -6.06078 | -35.50879 | 3472 ft | 282 kts | 338° |
| 2026-04-29 14:46 | -6.04261 | -35.51611 | 3471 ft | 281 kts | 338° |
| 2026-04-29 14:46 | -6.02445 | -35.52346 | 3468 ft | 282 kts | 338° |
| 2026-04-29 14:46 | -6.00622 | -35.53079 | 3477 ft | 282 kts | 338° |
| 2026-04-29 14:47 | -5.98808 | -35.53809 | 3473 ft | 277 kts | 338° |
| 2026-04-29 14:47 | -5.97041 | -35.54517 | 3470 ft | 270 kts | 338° |
| 2026-04-29 14:47 | -5.95320 | -35.55212 | 3481 ft | 264 kts | 338° |
| 2026-04-29 14:47 | -5.94174 | -35.55675 | 3475 ft | 261 kts | 338° |
| 2026-04-29 14:48 | -5.91951 | -35.56573 | 3478 ft | 259 kts | 338° |
| 2026-04-29 14:48 | -5.90290 | -35.57242 | 3484 ft | 256 kts | 338° |
| 2026-04-29 14:48 | -5.88658 | -35.57895 | 3475 ft | 247 kts | 338° |
| 2026-04-29 14:48 | -5.87085 | -35.58524 | 3478 ft | 239 kts | 339° |
| 2026-04-29 14:49 | -5.85567 | -35.59132 | 3480 ft | 232 kts | 338° |
| 2026-04-29 14:49 | -5.84091 | -35.59725 | 3477 ft | 225 kts | 339° |
| 2026-04-29 14:49 | -5.82656 | -35.60304 | 3479 ft | 219 kts | 338° |
| 2026-04-29 14:49 | -5.81254 | -35.60868 | 3484 ft | 214 kts | 338° |
| 2026-04-29 14:50 | -5.80341 | -35.61235 | 3479 ft | 213 kts | 338° |
| 2026-04-29 14:50 | -5.78970 | -35.61785 | 3379 ft | 214 kts | 339° |
| 2026-04-29 14:50 | -5.77481 | -35.62008 | 3057 ft | 224 kts | 6° |
| 2026-04-29 14:50 | -5.75946 | -35.61626 | 2668 ft | 231 kts | 27° |
| 2026-04-29 14:51 | -5.74653 | -35.60674 | 2291 ft | 233 kts | 50° |
| 2026-04-29 14:51 | -5.73824 | -35.59307 | 1991 ft | 226 kts | 75° |
| 2026-04-29 14:51 | -5.73563 | -35.57830 | 1981 ft | 207 kts | 93° |
| 2026-04-29 14:51 | -5.73756 | -35.56447 | 1982 ft | 195 kts | 103° |
| 2026-04-29 14:52 | -5.73954 | -35.55148 | 1983 ft | 174 kts | 102° |
| 2026-04-29 14:52 | -5.74116 | -35.54072 | 1983 ft | 140 kts | 105° |
| 2026-04-29 14:52 | -5.74276 | -35.53196 | 1983 ft | 117 kts | 104° |
| 2026-04-29 14:52 | -5.74400 | -35.52440 | 1987 ft | 105 kts | 105° |
| 2026-04-29 14:53 | -5.74536 | -35.51728 | 1985 ft | 106 kts | 105° |
| 2026-04-29 14:53 | -5.74651 | -35.50982 | 1988 ft | 110 kts | 104° |
| 2026-04-29 14:53 | -5.74792 | -35.50215 | 1989 ft | 114 kts | 106° |
| 2026-04-29 14:53 | -5.74901 | -35.49421 | 1992 ft | 114 kts | 104° |
| 2026-04-29 14:54 | -5.75044 | -35.48650 | 1992 ft | 111 kts | 106° |
| 2026-04-29 14:54 | -5.75151 | -35.47891 | 1990 ft | 108 kts | 103° |
| 2026-04-29 14:54 | -5.75282 | -35.47157 | 1990 ft | 106 kts | 105° |
| 2026-04-29 14:54 | -5.75391 | -35.46416 | 1923 ft | 111 kts | 101° |
| 2026-04-29 14:55 | -5.75526 | -35.45655 | 1787 ft | 109 kts | 105° |
| 2026-04-29 14:55 | -5.75630 | -35.44940 | 1652 ft | 97 kts | 104° |
| 2026-04-29 14:55 | -5.75743 | -35.44304 | 1529 ft | 86 kts | 108° |
| 2026-04-29 14:55 | -5.75823 | -35.43741 | 1403 ft | 78 kts | 105° |
| 2026-04-29 14:56 | -5.75928 | -35.43193 | 1199 ft | 81 kts | 107° |
| 2026-04-29 14:56 | -5.75999 | -35.42645 | 1078 ft | 76 kts | 109° |
| 2026-04-29 14:56 | -5.76110 | -35.42112 | 891 ft | 77 kts | 102° |
| 2026-04-29 14:56 | -5.76189 | -35.41566 | 950 ft | 79 kts | 98° |
| 2026-04-29 14:57 | -5.76203 | -35.41014 | 1085 ft | 80 kts | 101° |
| 2026-04-29 14:57 | -5.76230 | -35.40437 | 1168 ft | 85 kts | 108° |
| 2026-04-29 14:57 | -5.76319 | -35.39830 | 1215 ft | 90 kts | 116° |
| 2026-04-29 14:57 | -5.76463 | -35.39288 | 1226 ft | 77 kts | 114° |
| 2026-04-29 14:58 | -5.76640 | -35.38747 | 977 ft | 88 kts | 99° |
| 2026-04-29 14:58 | -5.76738 | -35.38078 | 590 ft | 103 kts | 100° |
| 2026-04-29 14:58 | -5.76858 | -35.37380 | 327 ft | 94 kts | 101° |
| 2026-04-29 14:58 | -5.76929 | -35.36812 | 272 ft | 72 kts | 105° |
| 2026-04-29 14:59 | -5.77023 | -35.36432 | 270 ft | 31 kts | 98° |
| 2026-04-29 14:59 | -5.77039 | -35.36253 | 269 ft | 24 kts | 81° |
| 2026-04-29 14:59 | -5.77001 | -35.36098 | 269 ft | 22 kts | 66° |
| 2026-04-29 14:59 | -5.76978 | -35.36048 | 269 ft | 0 kts | 67° |
| 2026-04-29 15:00 | -5.76977 | -35.36046 | 269 ft | 2 kts | 69° |
| 2026-04-29 15:00 | -5.76952 | -35.36017 | 269 ft | 9 kts | 25° |
| 2026-04-29 15:00 | -5.76896 | -35.36076 | 269 ft | 18 kts | 280° |
| 2026-04-29 15:01 | -5.76876 | -35.36209 | 269 ft | 20 kts | 278° |
| 2026-04-29 15:01 | -5.76852 | -35.36348 | 269 ft | 21 kts | 281° |
| 2026-04-29 15:01 | -5.76833 | -35.36495 | 269 ft | 22 kts | 281° |
| 2026-04-29 15:01 | -5.76808 | -35.36649 | 269 ft | 23 kts | 277° |
| 2026-04-29 15:02 | -5.76775 | -35.36802 | 269 ft | 16 kts | 284° |
| 2026-04-29 15:02 | -5.76716 | -35.36848 | 269 ft | 12 kts | 12° |
| 2026-04-29 15:02 | -5.76632 | -35.36831 | 269 ft | 9 kts | 353° |
| 2026-04-29 15:02 | -5.76589 | -35.36826 | 269 ft | 5 kts | 57° |
| 2026-04-29 15:03 | -5.76574 | -35.36787 | 269 ft | 7 kts | 78° |
| 2026-04-29 15:03 | -5.76552 | -35.36773 | 269 ft | 4 kts | 347° |
| 2026-04-29 15:03 | -5.76519 | -35.36782 | 269 ft | 5 kts | 18° |
| 2026-04-29 15:03 | -5.76507 | -35.36778 | 269 ft | 0 kts | 7° |
| 2026-04-29 15:04 | -5.76503 | -35.36780 | 269 ft | 1 kts | 316° |
| 2026-04-29 15:04 | -5.76497 | -35.36826 | 269 ft | 14 kts | 272° |
| 2026-04-29 15:04 | -5.76567 | -35.36824 | 269 ft | 23 kts | 90° |
| 2026-04-29 15:04 | -5.76551 | -35.36678 | 269 ft | 9 kts | 1° |
| 2026-04-29 15:05 | -5.76529 | -35.36701 | 269 ft | 0 kts | 353° |
| 2026-04-29 15:05 | -5.76528 | -35.36701 | 269 ft | 0 kts | 355° |
| 2026-04-29 15:05 | -5.76523 | -35.36710 | 269 ft | 5 kts | 263° |
| 2026-04-29 15:05 | -5.76540 | -35.36811 | 269 ft | 25 kts | 259° |
| 2026-04-29 15:06 | -5.76530 | -35.37009 | 269 ft | 29 kts | 257° |